Shattuck, Oklahoma
Current Conditions -  °F | °C
As of 7:53 PM on Sunday 23 Nov 2014 (Local Time) from KGAG Reporting Station
Clear Clear  
Wind Chill: 34°   Ceiling: Unl
Heat Index: 40°   Visibility: 10mi
Dew Point: 27°   Wind: 8mph
Humidity: 60%   Direction: 300°WNW
Pressure: 29.76"   Gusts: NA
Location:  36.28°N, 99.88°W
Report Text: KGAG 240153Z AUTO 30007KT 10SM CLR 04/M03 A2976 RMK AO2 SLP081 T00441028
Loading
Personal Weather Stations






























Interactive Weather Map New forecast layout! Learn more

10-Day Weather Forecast

Advertisements
Track Severe Weather on mobile